sensor_id;sensor_type;location;lat;lon;timestamp;temperature;humidity
14236;DHT22;7202;50.718;7.072;2024-01-07T00:00:16;3.50;99.90
14236;DHT22;7202;50.718;7.072;2024-01-07T00:02:46;3.40;99.90
14236;DHT22;7202;50.718;7.072;2024-01-07T00:05:15;3.40;99.90
14236;DHT22;7202;50.718;7.072;2024-01-07T00:07:43;3.40;99.90
14236;DHT22;7202;50.718;7.072;2024-01-07T00:10:12;3.40;99.90
14236;DHT22;7202;50.718;7.072;2024-01-07T00:12:40;3.40;99.90
14236;DHT22;7202;50.718;7.072;2024-01-07T00:15:10;3.50;99.90
14236;DHT22;7202;50.718;7.072;2024-01-07T00:17:38;3.50;99.90
14236;DHT22;7202;50.718;7.072;2024-01-07T00:20:09;3.50;99.90
14236;DHT22;7202;50.718;7.072;2024-01-07T00:22:38;3.50;99.90
14236;DHT22;7202;50.718;7.072;2024-01-07T00:25:07;3.50;99.90
14236;DHT22;7202;50.718;7.072;2024-01-07T00:27:36;3.60;99.90
14236;DHT22;7202;50.718;7.072;2024-01-07T00:30:06;3.60;99.90
14236;DHT22;7202;50.718;7.072;2024-01-07T00:32:35;3.50;99.90
14236;DHT22;7202;50.718;7.072;2024-01-07T00:35:04;3.50;99.90
14236;DHT22;7202;50.718;7.072;2024-01-07T00:37:34;3.50;99.90
14236;DHT22;7202;50.718;7.072;2024-01-07T00:40:03;3.50;99.90
14236;DHT22;7202;50.718;7.072;2024-01-07T00:42:32;3.50;99.90
14236;DHT22;7202;50.718;7.072;2024-01-07T00:45:01;3.50;99.90
14236;DHT22;7202;50.718;7.072;2024-01-07T00:47:30;3.60;99.90
14236;DHT22;7202;50.718;7.072;2024-01-07T00:49:58;3.50;99.90
14236;DHT22;7202;50.718;7.072;2024-01-07T00:52:27;3.60;99.90
14236;DHT22;7202;50.718;7.072;2024-01-07T00:54:57;3.60;99.90
14236;DHT22;7202;50.718;7.072;2024-01-07T00:57:25;3.60;99.90
14236;DHT22;7202;50.718;7.072;2024-01-07T00:59:54;3.60;99.90
14236;DHT22;7202;50.718;7.072;2024-01-07T01:02:22;3.60;99.90
14236;DHT22;7202;50.718;7.072;2024-01-07T01:04:51;3.60;99.90
14236;DHT22;7202;50.718;7.072;2024-01-07T01:07:20;3.60;99.90
14236;DHT22;7202;50.718;7.072;2024-01-07T01:09:48;3.60;99.90
14236;DHT22;7202;50.718;7.072;2024-01-07T01:12:18;3.60;99.90
14236;DHT22;7202;50.718;7.072;2024-01-07T01:14:47;3.50;99.90
14236;DHT22;7202;50.718;7.072;2024-01-07T01:17:16;3.50;99.90
14236;DHT22;7202;50.718;7.072;2024-01-07T01:19:44;3.50;99.90
14236;DHT22;7202;50.718;7.072;2024-01-07T01:22:13;3.50;99.90
14236;DHT22;7202;50.718;7.072;2024-01-07T01:24:41;3.50;99.90
14236;DHT22;7202;50.718;7.072;2024-01-07T01:27:13;3.50;99.90
14236;DHT22;7202;50.718;7.072;2024-01-07T01:29:43;3.50;99.90
14236;DHT22;7202;50.718;7.072;2024-01-07T01:32:12;3.50;99.90
14236;DHT22;7202;50.718;7.072;2024-01-07T01:34:41;3.50;99.90
14236;DHT22;7202;50.718;7.072;2024-01-07T01:37:09;3.50;99.90
14236;DHT22;7202;50.718;7.072;2024-01-07T01:39:41;3.60;99.90
14236;DHT22;7202;50.718;7.072;2024-01-07T01:42:09;3.50;99.90
14236;DHT22;7202;50.718;7.072;2024-01-07T01:44:38;3.50;99.90
14236;DHT22;7202;50.718;7.072;2024-01-07T01:47:08;3.50;99.90
14236;DHT22;7202;50.718;7.072;2024-01-07T01:49:36;3.50;99.90
14236;DHT22;7202;50.718;7.072;2024-01-07T01:52:05;3.50;99.90
14236;DHT22;7202;50.718;7.072;2024-01-07T01:54:34;3.50;99.90
14236;DHT22;7202;50.718;7.072;2024-01-07T01:57:03;3.50;99.90
14236;DHT22;7202;50.718;7.072;2024-01-07T01:59:33;3.50;99.90
14236;DHT22;7202;50.718;7.072;2024-01-07T02:02:02;3.50;99.90
14236;DHT22;7202;50.718;7.072;2024-01-07T02:04:33;3.50;99.90
14236;DHT22;7202;50.718;7.072;2024-01-07T02:07:02;3.50;99.90
14236;DHT22;7202;50.718;7.072;2024-01-07T02:09:31;3.50;99.90
14236;DHT22;7202;50.718;7.072;2024-01-07T02:12:01;3.50;99.90
14236;DHT22;7202;50.718;7.072;2024-01-07T02:14:30;3.50;99.90
14236;DHT22;7202;50.718;7.072;2024-01-07T02:16:59;3.60;99.90
14236;DHT22;7202;50.718;7.072;2024-01-07T02:19:27;3.50;99.90
14236;DHT22;7202;50.718;7.072;2024-01-07T02:21:57;3.50;99.90
14236;DHT22;7202;50.718;7.072;2024-01-07T02:24:27;3.50;99.90
14236;DHT22;7202;50.718;7.072;2024-01-07T02:26:57;3.60;99.90
14236;DHT22;7202;50.718;7.072;2024-01-07T02:29:29;3.50;99.90
14236;DHT22;7202;50.718;7.072;2024-01-07T02:31:57;3.60;99.90
14236;DHT22;7202;50.718;7.072;2024-01-07T02:34:26;3.60;99.90
14236;DHT22;7202;50.718;7.072;2024-01-07T02:36:55;3.60;99.90
14236;DHT22;7202;50.718;7.072;2024-01-07T02:39:23;3.60;99.90
14236;DHT22;7202;50.718;7.072;2024-01-07T02:41:53;3.60;99.90
14236;DHT22;7202;50.718;7.072;2024-01-07T02:44:22;3.60;99.90
14236;DHT22;7202;50.718;7.072;2024-01-07T02:46:50;3.60;99.90
14236;DHT22;7202;50.718;7.072;2024-01-07T02:49:18;3.70;99.90
14236;DHT22;7202;50.718;7.072;2024-01-07T02:51:47;3.70;99.90
14236;DHT22;7202;50.718;7.072;2024-01-07T02:54:17;3.70;99.90
14236;DHT22;7202;50.718;7.072;2024-01-07T02:56:46;3.70;99.90
14236;DHT22;7202;50.718;7.072;2024-01-07T02:59:15;3.70;99.90
14236;DHT22;7202;50.718;7.072;2024-01-07T03:01:44;3.70;99.90
14236;DHT22;7202;50.718;7.072;2024-01-07T03:04:15;3.70;99.90
14236;DHT22;7202;50.718;7.072;2024-01-07T03:06:44;3.70;99.90
14236;DHT22;7202;50.718;7.072;2024-01-07T03:09:12;3.60;99.90
14236;DHT22;7202;50.718;7.072;2024-01-07T03:11:41;3.60;99.90
14236;DHT22;7202;50.718;7.072;2024-01-07T03:14:10;3.60;99.90
14236;DHT22;7202;50.718;7.072;2024-01-07T03:16:40;3.60;99.90
14236;DHT22;7202;50.718;7.072;2024-01-07T03:19:08;3.60;99.90
14236;DHT22;7202;50.718;7.072;2024-01-07T03:21:37;3.60;99.90
14236;DHT22;7202;50.718;7.072;2024-01-07T03:24:06;3.60;99.90
14236;DHT22;7202;50.718;7.072;2024-01-07T03:26:35;3.60;99.90
14236;DHT22;7202;50.718;7.072;2024-01-07T03:29:03;3.60;99.90
14236;DHT22;7202;50.718;7.072;2024-01-07T03:31:32;3.60;99.90
14236;DHT22;7202;50.718;7.072;2024-01-07T03:34:02;3.70;99.90
14236;DHT22;7202;50.718;7.072;2024-01-07T03:36:31;3.70;99.90
14236;DHT22;7202;50.718;7.072;2024-01-07T03:38:59;3.70;99.90
14236;DHT22;7202;50.718;7.072;2024-01-07T03:41:28;3.70;99.90
14236;DHT22;7202;50.718;7.072;2024-01-07T03:43:57;3.70;99.90
14236;DHT22;7202;50.718;7.072;2024-01-07T03:46:25;3.70;99.90
14236;DHT22;7202;50.718;7.072;2024-01-07T03:48:54;3.70;99.90
14236;DHT22;7202;50.718;7.072;2024-01-07T03:51:24;3.70;99.90
14236;DHT22;7202;50.718;7.072;2024-01-07T03:53:53;3.70;99.90
14236;DHT22;7202;50.718;7.072;2024-01-07T03:56:21;3.60;99.90
14236;DHT22;7202;50.718;7.072;2024-01-07T03:58:50;3.70;99.90
14236;DHT22;7202;50.718;7.072;2024-01-07T04:01:18;3.70;99.90
14236;DHT22;7202;50.718;7.072;2024-01-07T04:03:47;3.70;99.90
14236;DHT22;7202;50.718;7.072;2024-01-07T04:06:16;3.70;99.90
14236;DHT22;7202;50.718;7.072;2024-01-07T04:08:46;3.70;99.90
14236;DHT22;7202;50.718;7.072;2024-01-07T04:11:14;3.80;99.90
14236;DHT22;7202;50.718;7.072;2024-01-07T04:13:42;3.80;99.90
14236;DHT22;7202;50.718;7.072;2024-01-07T04:16:16;3.80;99.90
14236;DHT22;7202;50.718;7.072;2024-01-07T04:18:45;3.70;99.90
14236;DHT22;7202;50.718;7.072;2024-01-07T04:21:20;3.70;99.90
14236;DHT22;7202;50.718;7.072;2024-01-07T04:23:50;3.70;99.90
14236;DHT22;7202;50.718;7.072;2024-01-07T04:26:18;3.70;99.90
14236;DHT22;7202;50.718;7.072;2024-01-07T04:28:47;3.70;99.90
14236;DHT22;7202;50.718;7.072;2024-01-07T04:31:16;3.60;99.90
14236;DHT22;7202;50.718;7.072;2024-01-07T04:33:44;3.70;99.90
14236;DHT22;7202;50.718;7.072;2024-01-07T04:36:13;3.70;99.90
14236;DHT22;7202;50.718;7.072;2024-01-07T04:38:42;3.70;99.90
14236;DHT22;7202;50.718;7.072;2024-01-07T04:41:12;3.70;99.90
14236;DHT22;7202;50.718;7.072;2024-01-07T04:43:42;3.70;99.90
14236;DHT22;7202;50.718;7.072;2024-01-07T04:46:11;3.70;99.90
14236;DHT22;7202;50.718;7.072;2024-01-07T04:48:40;3.70;99.90
14236;DHT22;7202;50.718;7.072;2024-01-07T04:51:08;3.70;99.90
14236;DHT22;7202;50.718;7.072;2024-01-07T04:53:37;3.70;99.90
14236;DHT22;7202;50.718;7.072;2024-01-07T04:56:06;3.70;99.90
14236;DHT22;7202;50.718;7.072;2024-01-07T04:58:36;3.70;99.90
14236;DHT22;7202;50.718;7.072;2024-01-07T05:01:04;3.70;99.90
14236;DHT22;7202;50.718;7.072;2024-01-07T05:03:33;3.70;99.90
14236;DHT22;7202;50.718;7.072;2024-01-07T05:06:03;3.60;99.90
14236;DHT22;7202;50.718;7.072;2024-01-07T05:08:32;3.40;99.90
14236;DHT22;7202;50.718;7.072;2024-01-07T05:11:00;3.60;99.90
14236;DHT22;7202;50.718;7.072;2024-01-07T05:13:29;3.60;99.90
14236;DHT22;7202;50.718;7.072;2024-01-07T05:15:59;3.50;99.90
14236;DHT22;7202;50.718;7.072;2024-01-07T05:18:28;3.60;99.90
14236;DHT22;7202;50.718;7.072;2024-01-07T05:20:57;3.60;99.90
14236;DHT22;7202;50.718;7.072;2024-01-07T05:23:25;3.60;99.90
14236;DHT22;7202;50.718;7.072;2024-01-07T05:25:54;3.50;99.90
14236;DHT22;7202;50.718;7.072;2024-01-07T05:28:22;3.60;99.90
14236;DHT22;7202;50.718;7.072;2024-01-07T05:30:51;3.60;99.90
14236;DHT22;7202;50.718;7.072;2024-01-07T05:33:21;3.60;99.90
14236;DHT22;7202;50.718;7.072;2024-01-07T05:35:50;3.60;99.90
14236;DHT22;7202;50.718;7.072;2024-01-07T05:38:19;3.50;99.90
14236;DHT22;7202;50.718;7.072;2024-01-07T05:40:47;3.60;99.90
14236;DHT22;7202;50.718;7.072;2024-01-07T05:43:15;3.50;99.90
14236;DHT22;7202;50.718;7.072;2024-01-07T05:45:44;3.50;99.90
14236;DHT22;7202;50.718;7.072;2024-01-07T05:48:12;3.40;99.90
14236;DHT22;7202;50.718;7.072;2024-01-07T05:50:43;3.40;99.90
14236;DHT22;7202;50.718;7.072;2024-01-07T05:53:11;3.40;99.90
14236;DHT22;7202;50.718;7.072;2024-01-07T05:55:40;3.40;99.90
14236;DHT22;7202;50.718;7.072;2024-01-07T05:58:08;3.40;99.90
14236;DHT22;7202;50.718;7.072;2024-01-07T06:00:38;3.40;99.90
14236;DHT22;7202;50.718;7.072;2024-01-07T06:03:06;3.40;99.90
14236;DHT22;7202;50.718;7.072;2024-01-07T06:05:35;3.30;99.90
14236;DHT22;7202;50.718;7.072;2024-01-07T06:08:07;3.40;99.90
14236;DHT22;7202;50.718;7.072;2024-01-07T06:10:36;3.40;99.90
14236;DHT22;7202;50.718;7.072;2024-01-07T06:13:05;3.30;99.90
14236;DHT22;7202;50.718;7.072;2024-01-07T06:15:33;3.30;99.90
14236;DHT22;7202;50.718;7.072;2024-01-07T06:18:02;3.30;99.90
14236;DHT22;7202;50.718;7.072;2024-01-07T06:20:31;3.30;99.90
14236;DHT22;7202;50.718;7.072;2024-01-07T06:23:00;3.20;99.90
14236;DHT22;7202;50.718;7.072;2024-01-07T06:25:29;3.20;99.90
14236;DHT22;7202;50.718;7.072;2024-01-07T06:27:58;3.20;99.90
14236;DHT22;7202;50.718;7.072;2024-01-07T06:30:26;3.20;99.90
14236;DHT22;7202;50.718;7.072;2024-01-07T06:32:55;3.20;99.90
14236;DHT22;7202;50.718;7.072;2024-01-07T06:35:24;3.20;99.90
14236;DHT22;7202;50.718;7.072;2024-01-07T06:37:52;3.20;99.90
14236;DHT22;7202;50.718;7.072;2024-01-07T06:40:21;3.20;99.90
14236;DHT22;7202;50.718;7.072;2024-01-07T06:42:51;3.20;99.90
14236;DHT22;7202;50.718;7.072;2024-01-07T06:45:20;3.20;99.90
14236;DHT22;7202;50.718;7.072;2024-01-07T06:47:48;3.10;99.90
14236;DHT22;7202;50.718;7.072;2024-01-07T06:50:17;3.20;99.90
14236;DHT22;7202;50.718;7.072;2024-01-07T06:52:47;3.20;99.90
14236;DHT22;7202;50.718;7.072;2024-01-07T06:55:15;3.10;99.90
14236;DHT22;7202;50.718;7.072;2024-01-07T06:57:44;3.10;99.90
14236;DHT22;7202;50.718;7.072;2024-01-07T07:00:15;3.20;99.90
14236;DHT22;7202;50.718;7.072;2024-01-07T07:02:45;3.20;99.90
14236;DHT22;7202;50.718;7.072;2024-01-07T07:05:13;3.20;99.90
14236;DHT22;7202;50.718;7.072;2024-01-07T07:07:42;3.20;99.90
14236;DHT22;7202;50.718;7.072;2024-01-07T07:10:10;3.20;99.90
14236;DHT22;7202;50.718;7.072;2024-01-07T07:12:39;3.20;99.90
14236;DHT22;7202;50.718;7.072;2024-01-07T07:15:08;3.20;99.90
14236;DHT22;7202;50.718;7.072;2024-01-07T07:17:38;3.20;99.90
14236;DHT22;7202;50.718;7.072;2024-01-07T07:20:08;3.20;99.90
14236;DHT22;7202;50.718;7.072;2024-01-07T07:22:37;3.10;99.90
14236;DHT22;7202;50.718;7.072;2024-01-07T07:25:06;3.10;99.90
14236;DHT22;7202;50.718;7.072;2024-01-07T07:27:35;3.10;99.90
14236;DHT22;7202;50.718;7.072;2024-01-07T07:30:06;3.10;99.90
14236;DHT22;7202;50.718;7.072;2024-01-07T07:32:35;3.10;99.90
14236;DHT22;7202;50.718;7.072;2024-01-07T07:35:06;3.10;99.90
14236;DHT22;7202;50.718;7.072;2024-01-07T07:37:34;3.10;99.90
14236;DHT22;7202;50.718;7.072;2024-01-07T07:40:04;3.10;99.90
14236;DHT22;7202;50.718;7.072;2024-01-07T07:42:33;3.10;99.90
14236;DHT22;7202;50.718;7.072;2024-01-07T07:45:02;3.10;99.90
14236;DHT22;7202;50.718;7.072;2024-01-07T07:47:31;3.10;99.90
14236;DHT22;7202;50.718;7.072;2024-01-07T07:49:59;3.10;99.90
14236;DHT22;7202;50.718;7.072;2024-01-07T07:52:30;3.10;99.90
14236;DHT22;7202;50.718;7.072;2024-01-07T07:54:59;3.10;99.90
14236;DHT22;7202;50.718;7.072;2024-01-07T07:57:27;3.20;99.90
14236;DHT22;7202;50.718;7.072;2024-01-07T07:59:56;3.20;99.90
14236;DHT22;7202;50.718;7.072;2024-01-07T08:02:28;3.20;99.90
14236;DHT22;7202;50.718;7.072;2024-01-07T08:04:56;3.20;99.90
14236;DHT22;7202;50.718;7.072;2024-01-07T08:07:25;3.20;99.90
14236;DHT22;7202;50.718;7.072;2024-01-07T08:09:54;3.20;99.90
14236;DHT22;7202;50.718;7.072;2024-01-07T08:12:25;3.20;99.90
14236;DHT22;7202;50.718;7.072;2024-01-07T08:14:53;3.10;99.90
14236;DHT22;7202;50.718;7.072;2024-01-07T08:17:22;3.20;99.90
14236;DHT22;7202;50.718;7.072;2024-01-07T08:19:53;3.20;99.90
14236;DHT22;7202;50.718;7.072;2024-01-07T08:22:22;3.10;99.90
14236;DHT22;7202;50.718;7.072;2024-01-07T08:24:50;3.10;99.90
14236;DHT22;7202;50.718;7.072;2024-01-07T08:27:20;3.10;99.90
14236;DHT22;7202;50.718;7.072;2024-01-07T08:29:48;3.10;99.90
14236;DHT22;7202;50.718;7.072;2024-01-07T08:32:17;3.10;99.90
14236;DHT22;7202;50.718;7.072;2024-01-07T08:34:46;3.10;99.90
14236;DHT22;7202;50.718;7.072;2024-01-07T08:37:15;3.10;99.90
14236;DHT22;7202;50.718;7.072;2024-01-07T08:39:43;3.20;99.90
14236;DHT22;7202;50.718;7.072;2024-01-07T08:42:12;3.20;99.90
14236;DHT22;7202;50.718;7.072;2024-01-07T08:44:42;3.20;99.90
14236;DHT22;7202;50.718;7.072;2024-01-07T08:47:10;3.20;99.90
14236;DHT22;7202;50.718;7.072;2024-01-07T08:49:40;3.20;99.90
14236;DHT22;7202;50.718;7.072;2024-01-07T08:52:08;3.10;99.90
14236;DHT22;7202;50.718;7.072;2024-01-07T08:54:37;3.10;99.90
14236;DHT22;7202;50.718;7.072;2024-01-07T08:57:06;3.10;99.90
14236;DHT22;7202;50.718;7.072;2024-01-07T08:59:35;3.10;99.90
14236;DHT22;7202;50.718;7.072;2024-01-07T09:02:05;3.20;99.90
14236;DHT22;7202;50.718;7.072;2024-01-07T09:04:34;3.10;99.90
14236;DHT22;7202;50.718;7.072;2024-01-07T09:07:03;3.20;99.90
14236;DHT22;7202;50.718;7.072;2024-01-07T09:09:32;3.10;99.90
14236;DHT22;7202;50.718;7.072;2024-01-07T09:12:00;3.10;99.90
14236;DHT22;7202;50.718;7.072;2024-01-07T09:14:30;3.20;99.90
14236;DHT22;7202;50.718;7.072;2024-01-07T09:16:59;3.20;99.90
14236;DHT22;7202;50.718;7.072;2024-01-07T09:19:29;3.20;99.90
14236;DHT22;7202;50.718;7.072;2024-01-07T09:21:58;3.20;99.90
14236;DHT22;7202;50.718;7.072;2024-01-07T09:24:26;3.20;99.90
14236;DHT22;7202;50.718;7.072;2024-01-07T09:26:55;3.20;99.90
14236;DHT22;7202;50.718;7.072;2024-01-07T09:29:24;3.20;99.90
14236;DHT22;7202;50.718;7.072;2024-01-07T09:31:52;3.20;99.90
14236;DHT22;7202;50.718;7.072;2024-01-07T09:34:21;3.20;99.90
14236;DHT22;7202;50.718;7.072;2024-01-07T09:36:51;3.20;99.90
14236;DHT22;7202;50.718;7.072;2024-01-07T09:39:20;3.00;99.90
14236;DHT22;7202;50.718;7.072;2024-01-07T09:41:48;3.20;99.90
14236;DHT22;7202;50.718;7.072;2024-01-07T09:44:18;3.10;99.90
14236;DHT22;7202;50.718;7.072;2024-01-07T09:46:48;3.20;99.90
14236;DHT22;7202;50.718;7.072;2024-01-07T09:49:19;3.10;99.90
14236;DHT22;7202;50.718;7.072;2024-01-07T09:51:50;3.10;99.90
14236;DHT22;7202;50.718;7.072;2024-01-07T09:54:51;3.20;99.90
14236;DHT22;7202;50.718;7.072;2024-01-07T09:57:20;3.10;99.90
14236;DHT22;7202;50.718;7.072;2024-01-07T09:59:49;3.20;99.90
14236;DHT22;7202;50.718;7.072;2024-01-07T10:02:18;3.20;99.90
14236;DHT22;7202;50.718;7.072;2024-01-07T10:04:47;3.20;99.90
14236;DHT22;7202;50.718;7.072;2024-01-07T10:07:18;3.20;99.90
14236;DHT22;7202;50.718;7.072;2024-01-07T10:09:47;3.20;99.90
14236;DHT22;7202;50.718;7.072;2024-01-07T10:12:16;3.20;99.90
14236;DHT22;7202;50.718;7.072;2024-01-07T10:14:44;3.20;99.90
14236;DHT22;7202;50.718;7.072;2024-01-07T10:17:17;3.20;99.90
14236;DHT22;7202;50.718;7.072;2024-01-07T10:19:45;3.20;99.90
14236;DHT22;7202;50.718;7.072;2024-01-07T10:22:15;3.20;99.90
14236;DHT22;7202;50.718;7.072;2024-01-07T10:24:45;3.20;99.90
14236;DHT22;7202;50.718;7.072;2024-01-07T10:27:16;3.20;99.90
14236;DHT22;7202;50.718;7.072;2024-01-07T10:29:46;3.20;99.90
14236;DHT22;7202;50.718;7.072;2024-01-07T10:32:19;3.20;99.90
14236;DHT22;7202;50.718;7.072;2024-01-07T10:34:48;3.20;99.90
14236;DHT22;7202;50.718;7.072;2024-01-07T10:37:19;3.20;99.90
14236;DHT22;7202;50.718;7.072;2024-01-07T10:39:50;3.20;99.90
14236;DHT22;7202;50.718;7.072;2024-01-07T10:42:20;3.20;99.90
14236;DHT22;7202;50.718;7.072;2024-01-07T10:44:48;3.10;99.90
14236;DHT22;7202;50.718;7.072;2024-01-07T10:47:19;3.10;99.90
14236;DHT22;7202;50.718;7.072;2024-01-07T10:49:50;3.20;99.90
14236;DHT22;7202;50.718;7.072;2024-01-07T10:52:20;3.20;99.90
14236;DHT22;7202;50.718;7.072;2024-01-07T10:54:52;3.20;99.90
14236;DHT22;7202;50.718;7.072;2024-01-07T10:57:27;3.20;99.90
14236;DHT22;7202;50.718;7.072;2024-01-07T11:00:00;3.20;99.90
14236;DHT22;7202;50.718;7.072;2024-01-07T11:02:35;3.20;99.90
14236;DHT22;7202;50.718;7.072;2024-01-07T11:05:25;3.20;99.90
14236;DHT22;7202;50.718;7.072;2024-01-07T11:08:01;3.10;99.90
14236;DHT22;7202;50.718;7.072;2024-01-07T11:10:38;3.10;99.90
14236;DHT22;7202;50.718;7.072;2024-01-07T11:13:32;3.10;99.90
14236;DHT22;7202;50.718;7.072;2024-01-07T11:16:01;3.10;99.90
14236;DHT22;7202;50.718;7.072;2024-01-07T11:18:31;3.10;99.90
14236;DHT22;7202;50.718;7.072;2024-01-07T11:21:01;3.10;99.90
14236;DHT22;7202;50.718;7.072;2024-01-07T11:23:31;3.10;99.90
14236;DHT22;7202;50.718;7.072;2024-01-07T11:26:03;3.10;99.90
14236;DHT22;7202;50.718;7.072;2024-01-07T11:28:49;3.10;99.90
14236;DHT22;7202;50.718;7.072;2024-01-07T11:31:19;3.10;99.90
14236;DHT22;7202;50.718;7.072;2024-01-07T11:33:49;3.10;99.90
14236;DHT22;7202;50.718;7.072;2024-01-07T11:36:18;3.10;99.90
14236;DHT22;7202;50.718;7.072;2024-01-07T11:38:48;3.10;99.90
14236;DHT22;7202;50.718;7.072;2024-01-07T11:41:24;3.20;99.90
14236;DHT22;7202;50.718;7.072;2024-01-07T11:43:55;3.20;99.90
14236;DHT22;7202;50.718;7.072;2024-01-07T11:46:32;3.20;99.90
14236;DHT22;7202;50.718;7.072;2024-01-07T11:49:02;3.20;99.90
14236;DHT22;7202;50.718;7.072;2024-01-07T11:51:31;3.20;99.90
14236;DHT22;7202;50.718;7.072;2024-01-07T11:54:02;3.20;99.90
14236;DHT22;7202;50.718;7.072;2024-01-07T11:56:32;3.30;99.90
14236;DHT22;7202;50.718;7.072;2024-01-07T11:59:01;3.30;99.90
14236;DHT22;7202;50.718;7.072;2024-01-07T12:01:29;3.40;99.90
14236;DHT22;7202;50.718;7.072;2024-01-07T12:03:58;3.40;99.90
14236;DHT22;7202;50.718;7.072;2024-01-07T12:06:27;3.40;99.90
14236;DHT22;7202;50.718;7.072;2024-01-07T12:08:56;3.40;99.90
14236;DHT22;7202;50.718;7.072;2024-01-07T12:11:25;3.40;99.90
14236;DHT22;7202;50.718;7.072;2024-01-07T12:13:56;3.40;99.90
14236;DHT22;7202;50.718;7.072;2024-01-07T12:16:26;3.40;99.90
14236;DHT22;7202;50.718;7.072;2024-01-07T12:18:55;3.40;99.90
14236;DHT22;7202;50.718;7.072;2024-01-07T12:21:24;3.40;99.90
14236;DHT22;7202;50.718;7.072;2024-01-07T12:23:54;3.40;99.90
14236;DHT22;7202;50.718;7.072;2024-01-07T12:26:26;3.30;99.90
14236;DHT22;7202;50.718;7.072;2024-01-07T12:28:57;3.30;99.90
14236;DHT22;7202;50.718;7.072;2024-01-07T12:31:27;3.20;99.90
14236;DHT22;7202;50.718;7.072;2024-01-07T12:33:56;3.20;99.90
14236;DHT22;7202;50.718;7.072;2024-01-07T12:36:26;3.20;99.90
14236;DHT22;7202;50.718;7.072;2024-01-07T12:38:54;3.10;99.90
14236;DHT22;7202;50.718;7.072;2024-01-07T12:41:23;3.10;99.90
14236;DHT22;7202;50.718;7.072;2024-01-07T12:43:51;3.10;99.90
14236;DHT22;7202;50.718;7.072;2024-01-07T12:46:21;3.10;99.90
14236;DHT22;7202;50.718;7.072;2024-01-07T12:48:50;3.10;99.90
14236;DHT22;7202;50.718;7.072;2024-01-07T12:51:19;3.10;99.90
14236;DHT22;7202;50.718;7.072;2024-01-07T12:53:50;3.10;99.90
14236;DHT22;7202;50.718;7.072;2024-01-07T12:56:19;3.10;99.90
14236;DHT22;7202;50.718;7.072;2024-01-07T12:58:47;3.10;99.90
14236;DHT22;7202;50.718;7.072;2024-01-07T13:01:16;3.10;99.90
14236;DHT22;7202;50.718;7.072;2024-01-07T13:03:46;3.10;99.90
14236;DHT22;7202;50.718;7.072;2024-01-07T13:06:16;3.10;99.90
14236;DHT22;7202;50.718;7.072;2024-01-07T13:08:45;3.10;99.90
14236;DHT22;7202;50.718;7.072;2024-01-07T13:11:13;3.10;99.90
14236;DHT22;7202;50.718;7.072;2024-01-07T13:13:44;3.10;99.90
14236;DHT22;7202;50.718;7.072;2024-01-07T13:16:12;3.10;99.90
14236;DHT22;7202;50.718;7.072;2024-01-07T13:18:41;3.10;99.90
14236;DHT22;7202;50.718;7.072;2024-01-07T13:21:11;3.10;99.90
14236;DHT22;7202;50.718;7.072;2024-01-07T13:23:39;3.10;99.90
14236;DHT22;7202;50.718;7.072;2024-01-07T13:26:11;3.10;99.90
14236;DHT22;7202;50.718;7.072;2024-01-07T13:28:39;3.10;99.90
14236;DHT22;7202;50.718;7.072;2024-01-07T13:31:08;3.10;99.90
14236;DHT22;7202;50.718;7.072;2024-01-07T13:33:39;3.10;99.90
14236;DHT22;7202;50.718;7.072;2024-01-07T13:36:08;3.10;99.90
14236;DHT22;7202;50.718;7.072;2024-01-07T13:38:41;3.00;99.90
14236;DHT22;7202;50.718;7.072;2024-01-07T13:41:12;3.00;99.90
14236;DHT22;7202;50.718;7.072;2024-01-07T13:43:42;3.00;99.90
14236;DHT22;7202;50.718;7.072;2024-01-07T13:46:11;3.00;99.90
14236;DHT22;7202;50.718;7.072;2024-01-07T13:48:41;2.90;99.90
14236;DHT22;7202;50.718;7.072;2024-01-07T13:51:11;2.90;99.90
14236;DHT22;7202;50.718;7.072;2024-01-07T13:53:41;2.90;99.90
14236;DHT22;7202;50.718;7.072;2024-01-07T13:56:10;2.90;99.90
14236;DHT22;7202;50.718;7.072;2024-01-07T13:58:39;2.80;99.90
14236;DHT22;7202;50.718;7.072;2024-01-07T14:01:09;2.80;99.90
14236;DHT22;7202;50.718;7.072;2024-01-07T14:03:37;3.30;99.90
14236;DHT22;7202;50.718;7.072;2024-01-07T14:06:06;2.70;99.90
14236;DHT22;7202;50.718;7.072;2024-01-07T14:08:34;2.70;99.90
14236;DHT22;7202;50.718;7.072;2024-01-07T14:11:05;2.70;99.90
14236;DHT22;7202;50.718;7.072;2024-01-07T14:13:34;2.70;99.90
14236;DHT22;7202;50.718;7.072;2024-01-07T14:16:04;2.70;99.90
14236;DHT22;7202;50.718;7.072;2024-01-07T14:18:34;2.70;99.90
14236;DHT22;7202;50.718;7.072;2024-01-07T14:21:03;2.60;99.90
14236;DHT22;7202;50.718;7.072;2024-01-07T14:23:32;2.60;99.90
14236;DHT22;7202;50.718;7.072;2024-01-07T14:26:01;2.60;99.90
14236;DHT22;7202;50.718;7.072;2024-01-07T14:28:31;2.60;99.90
14236;DHT22;7202;50.718;7.072;2024-01-07T14:31:00;2.60;99.90
14236;DHT22;7202;50.718;7.072;2024-01-07T14:33:29;2.60;99.90
14236;DHT22;7202;50.718;7.072;2024-01-07T14:35:57;2.80;99.90
14236;DHT22;7202;50.718;7.072;2024-01-07T14:38:26;2.50;99.90
14236;DHT22;7202;50.718;7.072;2024-01-07T14:40:55;2.50;99.90
14236;DHT22;7202;50.718;7.072;2024-01-07T14:43:24;2.50;99.90
14236;DHT22;7202;50.718;7.072;2024-01-07T14:45:54;2.50;99.90
14236;DHT22;7202;50.718;7.072;2024-01-07T14:48:23;2.40;99.90
14236;DHT22;7202;50.718;7.072;2024-01-07T14:50:51;2.40;99.90
14236;DHT22;7202;50.718;7.072;2024-01-07T14:53:20;2.40;99.90
14236;DHT22;7202;50.718;7.072;2024-01-07T14:55:49;2.30;99.90
14236;DHT22;7202;50.718;7.072;2024-01-07T14:58:17;2.40;99.90
14236;DHT22;7202;50.718;7.072;2024-01-07T15:00:48;2.30;99.90
14236;DHT22;7202;50.718;7.072;2024-01-07T15:03:19;2.40;99.90
14236;DHT22;7202;50.718;7.072;2024-01-07T15:05:47;2.30;99.90
14236;DHT22;7202;50.718;7.072;2024-01-07T15:08:15;2.30;99.90
14236;DHT22;7202;50.718;7.072;2024-01-07T15:10:44;2.20;99.90
14236;DHT22;7202;50.718;7.072;2024-01-07T15:13:12;2.10;99.90
14236;DHT22;7202;50.718;7.072;2024-01-07T15:15:47;2.10;99.90
14236;DHT22;7202;50.718;7.072;2024-01-07T15:18:16;2.10;99.90
14236;DHT22;7202;50.718;7.072;2024-01-07T15:20:46;2.10;99.90
14236;DHT22;7202;50.718;7.072;2024-01-07T15:23:15;2.10;99.90
14236;DHT22;7202;50.718;7.072;2024-01-07T15:25:44;2.00;99.90
14236;DHT22;7202;50.718;7.072;2024-01-07T15:28:13;2.00;99.90
14236;DHT22;7202;50.718;7.072;2024-01-07T15:30:41;2.00;99.90
14236;DHT22;7202;50.718;7.072;2024-01-07T15:33:10;2.00;99.90
14236;DHT22;7202;50.718;7.072;2024-01-07T15:35:39;2.00;99.90
14236;DHT22;7202;50.718;7.072;2024-01-07T15:38:09;1.90;99.90
14236;DHT22;7202;50.718;7.072;2024-01-07T15:40:37;1.90;99.90
14236;DHT22;7202;50.718;7.072;2024-01-07T15:43:06;1.90;99.90
14236;DHT22;7202;50.718;7.072;2024-01-07T15:45:36;1.90;99.90
14236;DHT22;7202;50.718;7.072;2024-01-07T15:48:05;1.80;99.90
14236;DHT22;7202;50.718;7.072;2024-01-07T15:50:33;1.80;99.90
14236;DHT22;7202;50.718;7.072;2024-01-07T15:53:02;1.80;99.90
14236;DHT22;7202;50.718;7.072;2024-01-07T15:55:36;1.70;99.90
14236;DHT22;7202;50.718;7.072;2024-01-07T15:58:04;1.60;99.90
14236;DHT22;7202;50.718;7.072;2024-01-07T16:00:33;1.60;99.90
14236;DHT22;7202;50.718;7.072;2024-01-07T16:03:02;1.60;99.90
14236;DHT22;7202;50.718;7.072;2024-01-07T16:05:30;1.50;99.90
14236;DHT22;7202;50.718;7.072;2024-01-07T16:08:01;1.50;99.90
14236;DHT22;7202;50.718;7.072;2024-01-07T16:10:29;1.40;99.90
14236;DHT22;7202;50.718;7.072;2024-01-07T16:13:00;1.40;99.90
14236;DHT22;7202;50.718;7.072;2024-01-07T16:15:28;1.40;99.90